sensor_id;sensor_type;location;lat;lon;timestamp;P1;durP1;ratioP1;P2;durP2;ratioP2
19189;SDS011;9727;50.200;19.038;2022-09-01T00:00:01;8.00;;;3.30;;
19189;SDS011;9727;50.200;19.038;2022-09-01T00:02:28;7.17;;;3.60;;
19189;SDS011;9727;50.200;19.038;2022-09-01T00:04:54;6.83;;;3.33;;
19189;SDS011;9727;50.200;19.038;2022-09-01T00:07:22;5.50;;;3.30;;
19189;SDS011;9727;50.200;19.038;2022-09-01T00:09:50;10.53;;;3.53;;
19189;SDS011;9727;50.200;19.038;2022-09-01T00:12:17;7.30;;;3.37;;
19189;SDS011;9727;50.200;19.038;2022-09-01T00:14:46;7.57;;;3.77;;
19189;SDS011;9727;50.200;19.038;2022-09-01T00:17:13;8.40;;;3.30;;
19189;SDS011;9727;50.200;19.038;2022-09-01T00:19:40;7.80;;;3.63;;
19189;SDS011;9727;50.200;19.038;2022-09-01T00:22:07;7.00;;;3.60;;
19189;SDS011;9727;50.200;19.038;2022-09-01T00:24:34;7.27;;;3.83;;
19189;SDS011;9727;50.200;19.038;2022-09-01T00:27:02;6.30;;;3.70;;
19189;SDS011;9727;50.200;19.038;2022-09-01T00:29:29;5.97;;;3.60;;
19189;SDS011;9727;50.200;19.038;2022-09-01T00:31:55;6.50;;;3.13;;
19189;SDS011;9727;50.200;19.038;2022-09-01T00:34:22;10.47;;;3.67;;
19189;SDS011;9727;50.200;19.038;2022-09-01T00:36:48;5.50;;;2.97;;
19189;SDS011;9727;50.200;19.038;2022-09-01T00:39:15;4.90;;;3.23;;
19189;SDS011;9727;50.200;19.038;2022-09-01T00:41:42;8.90;;;3.30;;
19189;SDS011;9727;50.200;19.038;2022-09-01T00:44:11;8.03;;;4.00;;
19189;SDS011;9727;50.200;19.038;2022-09-01T00:46:40;8.37;;;3.53;;
19189;SDS011;9727;50.200;19.038;2022-09-01T00:49:07;6.33;;;3.93;;
19189;SDS011;9727;50.200;19.038;2022-09-01T00:51:35;6.13;;;3.23;;
19189;SDS011;9727;50.200;19.038;2022-09-01T00:54:03;7.07;;;3.43;;
19189;SDS011;9727;50.200;19.038;2022-09-01T00:56:30;7.30;;;3.83;;
19189;SDS011;9727;50.200;19.038;2022-09-01T00:58:57;7.10;;;3.60;;
19189;SDS011;9727;50.200;19.038;2022-09-01T01:01:26;6.80;;;3.37;;
19189;SDS011;9727;50.200;19.038;2022-09-01T01:03:53;7.33;;;3.70;;
19189;SDS011;9727;50.200;19.038;2022-09-01T01:06:21;7.30;;;3.03;;
19189;SDS011;9727;50.200;19.038;2022-09-01T01:08:52;8.83;;;4.00;;
19189;SDS011;9727;50.200;19.038;2022-09-01T01:11:25;10.30;;;3.77;;
19189;SDS011;9727;50.200;19.038;2022-09-01T01:13:53;8.37;;;3.30;;
19189;SDS011;9727;50.200;19.038;2022-09-01T01:16:20;8.03;;;3.43;;
19189;SDS011;9727;50.200;19.038;2022-09-01T01:18:48;8.23;;;3.47;;
19189;SDS011;9727;50.200;19.038;2022-09-01T01:21:18;6.87;;;3.83;;
19189;SDS011;9727;50.200;19.038;2022-09-01T01:24:04;6.87;;;3.90;;
19189;SDS011;9727;50.200;19.038;2022-09-01T01:26:33;7.00;;;3.70;;
19189;SDS011;9727;50.200;19.038;2022-09-01T01:29:00;7.47;;;3.80;;
19189;SDS011;9727;50.200;19.038;2022-09-01T01:31:27;8.50;;;3.63;;
19189;SDS011;9727;50.200;19.038;2022-09-01T01:33:54;8.50;;;3.93;;
19189;SDS011;9727;50.200;19.038;2022-09-01T01:36:21;10.53;;;3.90;;
19189;SDS011;9727;50.200;19.038;2022-09-01T01:38:55;8.90;;;4.10;;
19189;SDS011;9727;50.200;19.038;2022-09-01T01:41:26;8.87;;;3.80;;
19189;SDS011;9727;50.200;19.038;2022-09-01T01:43:58;7.80;;;3.57;;
19189;SDS011;9727;50.200;19.038;2022-09-01T01:46:28;5.70;;;3.80;;
19189;SDS011;9727;50.200;19.038;2022-09-01T01:48:55;5.97;;;3.53;;
19189;SDS011;9727;50.200;19.038;2022-09-01T01:51:21;7.87;;;4.13;;
19189;SDS011;9727;50.200;19.038;2022-09-01T01:53:51;6.63;;;3.73;;
19189;SDS011;9727;50.200;19.038;2022-09-01T01:56:17;6.07;;;3.73;;
19189;SDS011;9727;50.200;19.038;2022-09-01T01:58:44;8.07;;;3.70;;
19189;SDS011;9727;50.200;19.038;2022-09-01T02:01:13;8.23;;;4.07;;
19189;SDS011;9727;50.200;19.038;2022-09-01T02:03:44;9.50;;;3.63;;
19189;SDS011;9727;50.200;19.038;2022-09-01T02:06:12;9.33;;;3.93;;
19189;SDS011;9727;50.200;19.038;2022-09-01T02:08:43;7.97;;;3.77;;
19189;SDS011;9727;50.200;19.038;2022-09-01T02:11:10;6.63;;;3.50;;
19189;SDS011;9727;50.200;19.038;2022-09-01T02:13:41;5.67;;;3.30;;
19189;SDS011;9727;50.200;19.038;2022-09-01T02:16:09;8.43;;;3.60;;
19189;SDS011;9727;50.200;19.038;2022-09-01T02:18:39;5.10;;;3.20;;
19189;SDS011;9727;50.200;19.038;2022-09-01T02:21:07;6.87;;;4.30;;
19189;SDS011;9727;50.200;19.038;2022-09-01T02:23:35;10.43;;;3.57;;
19189;SDS011;9727;50.200;19.038;2022-09-01T02:26:01;9.93;;;3.80;;
19189;SDS011;9727;50.200;19.038;2022-09-01T02:28:31;7.43;;;3.53;;
19189;SDS011;9727;50.200;19.038;2022-09-01T02:30:59;7.67;;;3.53;;
19189;SDS011;9727;50.200;19.038;2022-09-01T02:33:26;7.13;;;3.63;;
19189;SDS011;9727;50.200;19.038;2022-09-01T02:35:57;5.17;;;3.50;;
19189;SDS011;9727;50.200;19.038;2022-09-01T02:38:27;10.27;;;3.57;;
19189;SDS011;9727;50.200;19.038;2022-09-01T02:40:57;7.03;;;3.50;;
19189;SDS011;9727;50.200;19.038;2022-09-01T02:43:24;7.87;;;3.57;;
19189;SDS011;9727;50.200;19.038;2022-09-01T02:45:52;4.87;;;3.20;;
19189;SDS011;9727;50.200;19.038;2022-09-01T02:48:19;6.77;;;3.50;;
19189;SDS011;9727;50.200;19.038;2022-09-01T02:50:58;5.97;;;3.20;;
19189;SDS011;9727;50.200;19.038;2022-09-01T02:53:26;6.30;;;3.33;;
19189;SDS011;9727;50.200;19.038;2022-09-01T02:55:52;6.77;;;3.10;;
19189;SDS011;9727;50.200;19.038;2022-09-01T02:58:21;8.10;;;3.00;;
19189;SDS011;9727;50.200;19.038;2022-09-01T03:00:50;7.23;;;3.20;;
19189;SDS011;9727;50.200;19.038;2022-09-01T03:03:18;7.20;;;3.20;;
19189;SDS011;9727;50.200;19.038;2022-09-01T03:05:46;7.17;;;3.67;;
19189;SDS011;9727;50.200;19.038;2022-09-01T03:08:16;8.93;;;3.30;;
19189;SDS011;9727;50.200;19.038;2022-09-01T03:10:43;6.00;;;3.10;;
19189;SDS011;9727;50.200;19.038;2022-09-01T03:13:16;7.57;;;2.90;;
19189;SDS011;9727;50.200;19.038;2022-09-01T03:15:43;5.10;;;3.07;;
19189;SDS011;9727;50.200;19.038;2022-09-01T03:18:11;7.60;;;3.07;;
19189;SDS011;9727;50.200;19.038;2022-09-01T03:20:39;6.53;;;3.00;;
19189;SDS011;9727;50.200;19.038;2022-09-01T03:23:08;7.90;;;3.00;;
19189;SDS011;9727;50.200;19.038;2022-09-01T03:25:36;7.43;;;3.30;;
19189;SDS011;9727;50.200;19.038;2022-09-01T03:28:03;7.17;;;3.07;;
19189;SDS011;9727;50.200;19.038;2022-09-01T03:30:30;8.27;;;3.20;;
19189;SDS011;9727;50.200;19.038;2022-09-01T03:32:59;4.57;;;3.07;;
19189;SDS011;9727;50.200;19.038;2022-09-01T03:35:27;6.03;;;2.93;;
19189;SDS011;9727;50.200;19.038;2022-09-01T03:37:56;5.73;;;3.03;;
19189;SDS011;9727;50.200;19.038;2022-09-01T03:40:23;7.50;;;3.30;;
19189;SDS011;9727;50.200;19.038;2022-09-01T03:43:01;6.93;;;3.17;;
19189;SDS011;9727;50.200;19.038;2022-09-01T03:45:27;4.67;;;2.90;;
19189;SDS011;9727;50.200;19.038;2022-09-01T03:47:54;5.83;;;2.60;;
19189;SDS011;9727;50.200;19.038;2022-09-01T03:50:21;7.97;;;3.00;;
19189;SDS011;9727;50.200;19.038;2022-09-01T03:52:49;6.63;;;2.70;;
19189;SDS011;9727;50.200;19.038;2022-09-01T03:55:17;7.20;;;2.90;;
19189;SDS011;9727;50.200;19.038;2022-09-01T03:57:47;7.97;;;3.00;;
19189;SDS011;9727;50.200;19.038;2022-09-01T04:00:16;6.00;;;2.80;;
19189;SDS011;9727;50.200;19.038;2022-09-01T04:02:47;5.20;;;2.77;;
19189;SDS011;9727;50.200;19.038;2022-09-01T04:05:16;7.27;;;3.47;;
19189;SDS011;9727;50.200;19.038;2022-09-01T04:07:44;5.57;;;2.73;;
19189;SDS011;9727;50.200;19.038;2022-09-01T04:10:12;4.93;;;2.70;;
19189;SDS011;9727;50.200;19.038;2022-09-01T04:12:39;5.60;;;2.80;;
19189;SDS011;9727;50.200;19.038;2022-09-01T04:15:05;8.10;;;2.73;;
19189;SDS011;9727;50.200;19.038;2022-09-01T04:17:34;7.47;;;3.10;;
19189;SDS011;9727;50.200;19.038;2022-09-01T04:20:18;6.07;;;2.73;;
19189;SDS011;9727;50.200;19.038;2022-09-01T04:22:46;6.90;;;3.10;;
19189;SDS011;9727;50.200;19.038;2022-09-01T04:25:18;5.50;;;3.00;;
19189;SDS011;9727;50.200;19.038;2022-09-01T04:27:47;7.53;;;3.30;;
19189;SDS011;9727;50.200;19.038;2022-09-01T04:30:13;6.03;;;3.27;;
19189;SDS011;9727;50.200;19.038;2022-09-01T04:32:43;6.93;;;3.23;;
19189;SDS011;9727;50.200;19.038;2022-09-01T04:35:10;6.20;;;3.30;;
19189;SDS011;9727;50.200;19.038;2022-09-01T04:37:43;8.00;;;3.07;;
19189;SDS011;9727;50.200;19.038;2022-09-01T04:40:12;7.77;;;3.20;;
19189;SDS011;9727;50.200;19.038;2022-09-01T04:42:42;7.77;;;3.03;;
19189;SDS011;9727;50.200;19.038;2022-09-01T04:45:09;7.67;;;3.03;;
19189;SDS011;9727;50.200;19.038;2022-09-01T04:47:37;7.33;;;3.03;;
19189;SDS011;9727;50.200;19.038;2022-09-01T04:50:08;6.03;;;3.27;;
19189;SDS011;9727;50.200;19.038;2022-09-01T04:52:38;7.17;;;3.00;;
19189;SDS011;9727;50.200;19.038;2022-09-01T04:55:05;7.33;;;3.17;;
19189;SDS011;9727;50.200;19.038;2022-09-01T04:57:32;7.60;;;3.50;;
19189;SDS011;9727;50.200;19.038;2022-09-01T05:00:00;6.03;;;3.33;;
19189;SDS011;9727;50.200;19.038;2022-09-01T05:02:27;5.73;;;2.93;;
19189;SDS011;9727;50.200;19.038;2022-09-01T05:04:54;5.47;;;3.27;;
19189;SDS011;9727;50.200;19.038;2022-09-01T05:07:24;8.17;;;3.60;;
19189;SDS011;9727;50.200;19.038;2022-09-01T05:09:51;7.73;;;2.90;;
19189;SDS011;9727;50.200;19.038;2022-09-01T05:12:18;8.90;;;3.20;;
19189;SDS011;9727;50.200;19.038;2022-09-01T05:14:48;8.33;;;3.90;;
19189;SDS011;9727;50.200;19.038;2022-09-01T05:17:17;8.10;;;3.43;;
19189;SDS011;9727;50.200;19.038;2022-09-01T05:19:44;7.13;;;3.80;;
19189;SDS011;9727;50.200;19.038;2022-09-01T05:22:12;9.40;;;4.20;;
19189;SDS011;9727;50.200;19.038;2022-09-01T05:24:43;14.73;;;4.60;;
19189;SDS011;9727;50.200;19.038;2022-09-01T05:27:09;8.97;;;4.47;;
19189;SDS011;9727;50.200;19.038;2022-09-01T05:29:42;11.13;;;4.97;;
19189;SDS011;9727;50.200;19.038;2022-09-01T05:32:11;9.77;;;4.93;;
19189;SDS011;9727;50.200;19.038;2022-09-01T05:34:41;10.87;;;4.80;;
19189;SDS011;9727;50.200;19.038;2022-09-01T05:37:09;14.00;;;4.83;;
19189;SDS011;9727;50.200;19.038;2022-09-01T05:39:37;13.87;;;4.80;;
19189;SDS011;9727;50.200;19.038;2022-09-01T05:42:05;16.87;;;5.73;;
19189;SDS011;9727;50.200;19.038;2022-09-01T05:44:32;12.57;;;5.60;;
19189;SDS011;9727;50.200;19.038;2022-09-01T05:47:00;15.00;;;5.30;;
19189;SDS011;9727;50.200;19.038;2022-09-01T05:49:27;12.20;;;4.83;;
19189;SDS011;9727;50.200;19.038;2022-09-01T05:51:57;9.03;;;3.67;;
19189;SDS011;9727;50.200;19.038;2022-09-01T05:54:24;9.80;;;4.10;;
19189;SDS011;9727;50.200;19.038;2022-09-01T05:56:51;6.67;;;3.70;;
19189;SDS011;9727;50.200;19.038;2022-09-01T05:59:19;10.80;;;4.43;;
19189;SDS011;9727;50.200;19.038;2022-09-01T06:01:48;11.70;;;4.30;;
19189;SDS011;9727;50.200;19.038;2022-09-01T06:04:15;11.83;;;3.80;;
19189;SDS011;9727;50.200;19.038;2022-09-01T06:06:42;7.53;;;3.47;;
19189;SDS011;9727;50.200;19.038;2022-09-01T06:09:10;9.97;;;3.27;;
19189;SDS011;9727;50.200;19.038;2022-09-01T06:11:38;5.93;;;2.93;;
19189;SDS011;9727;50.200;19.038;2022-09-01T06:14:05;8.03;;;3.10;;
19189;SDS011;9727;50.200;19.038;2022-09-01T06:16:34;5.90;;;2.60;;
19189;SDS011;9727;50.200;19.038;2022-09-01T06:19:01;9.13;;;2.63;;
19189;SDS011;9727;50.200;19.038;2022-09-01T06:21:29;7.60;;;2.43;;
19189;SDS011;9727;50.200;19.038;2022-09-01T06:23:56;6.83;;;2.60;;
19189;SDS011;9727;50.200;19.038;2022-09-01T06:26:24;5.00;;;2.30;;
19189;SDS011;9727;50.200;19.038;2022-09-01T06:28:52;4.97;;;2.97;;
19189;SDS011;9727;50.200;19.038;2022-09-01T06:31:21;9.63;;;2.90;;
19189;SDS011;9727;50.200;19.038;2022-09-01T06:33:51;7.00;;;3.07;;
19189;SDS011;9727;50.200;19.038;2022-09-01T06:36:18;4.87;;;2.27;;
19189;SDS011;9727;50.200;19.038;2022-09-01T06:38:46;5.80;;;2.50;;
19189;SDS011;9727;50.200;19.038;2022-09-01T06:41:13;4.17;;;2.40;;
19189;SDS011;9727;50.200;19.038;2022-09-01T06:43:43;7.60;;;2.10;;
19189;SDS011;9727;50.200;19.038;2022-09-01T06:46:16;3.10;;;1.93;;
19189;SDS011;9727;50.200;19.038;2022-09-01T06:48:44;3.97;;;1.83;;
19189;SDS011;9727;50.200;19.038;2022-09-01T06:51:16;5.47;;;2.40;;
19189;SDS011;9727;50.200;19.038;2022-09-01T06:53:45;3.47;;;1.93;;
19189;SDS011;9727;50.200;19.038;2022-09-01T06:56:15;9.53;;;1.67;;
19189;SDS011;9727;50.200;19.038;2022-09-01T06:58:44;2.97;;;1.60;;
19189;SDS011;9727;50.200;19.038;2022-09-01T07:01:14;2.63;;;1.60;;
19189;SDS011;9727;50.200;19.038;2022-09-01T07:03:44;2.87;;;1.50;;
19189;SDS011;9727;50.200;19.038;2022-09-01T07:06:14;3.83;;;1.40;;
19189;SDS011;9727;50.200;19.038;2022-09-01T07:08:54;3.63;;;1.70;;
19189;SDS011;9727;50.200;19.038;2022-09-01T07:11:23;5.60;;;1.50;;
19189;SDS011;9727;50.200;19.038;2022-09-01T07:13:53;4.60;;;2.13;;
19189;SDS011;9727;50.200;19.038;2022-09-01T07:16:20;3.93;;;2.30;;
19189;SDS011;9727;50.200;19.038;2022-09-01T07:18:47;3.67;;;1.97;;
19189;SDS011;9727;50.200;19.038;2022-09-01T07:21:16;4.57;;;2.13;;
19189;SDS011;9727;50.200;19.038;2022-09-01T07:23:44;3.60;;;1.70;;
19189;SDS011;9727;50.200;19.038;2022-09-01T07:26:11;3.40;;;1.57;;
19189;SDS011;9727;50.200;19.038;2022-09-01T07:28:43;2.93;;;1.40;;
19189;SDS011;9727;50.200;19.038;2022-09-01T07:31:16;3.40;;;1.73;;
19189;SDS011;9727;50.200;19.038;2022-09-01T07:33:44;4.30;;;1.47;;
19189;SDS011;9727;50.200;19.038;2022-09-01T07:36:13;6.00;;;1.60;;
19189;SDS011;9727;50.200;19.038;2022-09-01T07:38:44;2.67;;;1.50;;
19189;SDS011;9727;50.200;19.038;2022-09-01T07:41:15;4.43;;;1.40;;
19189;SDS011;9727;50.200;19.038;2022-09-01T07:43:42;4.33;;;1.20;;
19189;SDS011;9727;50.200;19.038;2022-09-01T07:46:09;6.83;;;1.50;;
19189;SDS011;9727;50.200;19.038;2022-09-01T07:48:36;2.77;;;1.40;;
19189;SDS011;9727;50.200;19.038;2022-09-01T07:51:07;4.30;;;1.37;;
19189;SDS011;9727;50.200;19.038;2022-09-01T07:53:34;4.77;;;1.30;;
19189;SDS011;9727;50.200;19.038;2022-09-01T07:56:05;3.53;;;1.30;;
19189;SDS011;9727;50.200;19.038;2022-09-01T07:58:33;7.03;;;1.30;;
19189;SDS011;9727;50.200;19.038;2022-09-01T08:00:59;3.87;;;1.20;;
19189;SDS011;9727;50.200;19.038;2022-09-01T08:03:30;2.77;;;1.10;;
19189;SDS011;9727;50.200;19.038;2022-09-01T08:06:01;3.83;;;1.10;;
19189;SDS011;9727;50.200;19.038;2022-09-01T08:08:28;2.00;;;1.03;;
19189;SDS011;9727;50.200;19.038;2022-09-01T08:10:54;4.00;;;1.20;;
19189;SDS011;9727;50.200;19.038;2022-09-01T08:13:22;2.03;;;0.93;;
19189;SDS011;9727;50.200;19.038;2022-09-01T08:15:49;2.30;;;0.90;;
19189;SDS011;9727;50.200;19.038;2022-09-01T08:18:16;4.93;;;1.13;;
19189;SDS011;9727;50.200;19.038;2022-09-01T08:20:42;2.07;;;1.10;;
19189;SDS011;9727;50.200;19.038;2022-09-01T08:23:16;1.77;;;1.13;;
19189;SDS011;9727;50.200;19.038;2022-09-01T08:25:43;1.63;;;1.20;;
19189;SDS011;9727;50.200;19.038;2022-09-01T08:28:10;2.90;;;1.20;;
19189;SDS011;9727;50.200;19.038;2022-09-01T08:30:49;1.20;;;1.00;;
19189;SDS011;9727;50.200;19.038;2022-09-01T08:33:16;3.73;;;1.40;;
19189;SDS011;9727;50.200;19.038;2022-09-01T08:35:45;3.20;;;1.57;;
19189;SDS011;9727;50.200;19.038;2022-09-01T08:38:12;5.40;;;1.37;;
19189;SDS011;9727;50.200;19.038;2022-09-01T08:40:39;5.20;;;1.70;;
19189;SDS011;9727;50.200;19.038;2022-09-01T08:43:08;4.93;;;1.73;;
19189;SDS011;9727;50.200;19.038;2022-09-01T08:45:40;7.22;;;1.77;;
19189;SDS011;9727;50.200;19.038;2022-09-01T08:48:15;5.57;;;1.53;;
19189;SDS011;9727;50.200;19.038;2022-09-01T08:50:43;4.35;;;1.60;;
19189;SDS011;9727;50.200;19.038;2022-09-01T08:53:16;4.10;;;1.30;;
19189;SDS011;9727;50.200;19.038;2022-09-01T08:55:46;3.95;;;1.20;;
19189;SDS011;9727;50.200;19.038;2022-09-01T08:58:15;2.93;;;1.40;;
19189;SDS011;9727;50.200;19.038;2022-09-01T09:00:45;3.83;;;1.45;;
19189;SDS011;9727;50.200;19.038;2022-09-01T09:03:18;4.82;;;1.35;;
19189;SDS011;9727;50.200;19.038;2022-09-01T09:05:55;2.63;;;1.43;;
19189;SDS011;9727;50.200;19.038;2022-09-01T09:08:27;6.10;;;1.63;;
19189;SDS011;9727;50.200;19.038;2022-09-01T09:10:57;4.32;;;1.70;;
19189;SDS011;9727;50.200;19.038;2022-09-01T09:13:26;4.85;;;1.52;;
19189;SDS011;9727;50.200;19.038;2022-09-01T09:15:55;4.17;;;1.30;;
19189;SDS011;9727;50.200;19.038;2022-09-01T09:18:26;1.90;;;1.10;;
19189;SDS011;9727;50.200;19.038;2022-09-01T09:20:54;3.33;;;1.27;;
19189;SDS011;9727;50.200;19.038;2022-09-01T09:23:23;2.40;;;1.40;;
19189;SDS011;9727;50.200;19.038;2022-09-01T09:26:00;7.38;;;2.10;;
19189;SDS011;9727;50.200;19.038;2022-09-01T09:28:26;4.45;;;1.35;;
19189;SDS011;9727;50.200;19.038;2022-09-01T09:33:37;2.05;;;1.13;;
19189;SDS011;9727;50.200;19.038;2022-09-01T09:39:02;1.40;;;0.90;;
19189;SDS011;9727;50.200;19.038;2022-09-01T09:41:32;5.10;;;1.00;;
19189;SDS011;9727;50.200;19.038;2022-09-01T09:44:11;2.28;;;1.33;;
19189;SDS011;9727;50.200;19.038;2022-09-01T09:46:43;3.92;;;0.90;;
19189;SDS011;9727;50.200;19.038;2022-09-01T09:49:29;4.78;;;1.33;;
19189;SDS011;9727;50.200;19.038;2022-09-01T09:52:09;4.55;;;1.02;;
19189;SDS011;9727;50.200;19.038;2022-09-01T09:54:38;4.03;;;1.70;;
19189;SDS011;9727;50.200;19.038;2022-09-01T09:57:08;1.73;;;0.90;;
19189;SDS011;9727;50.200;19.038;2022-09-01T09:59:39;3.67;;;1.10;;
19189;SDS011;9727;50.200;19.038;2022-09-01T10:02:16;2.10;;;1.02;;
19189;SDS011;9727;50.200;19.038;2022-09-01T10:04:47;0.98;;;0.88;;
19189;SDS011;9727;50.200;19.038;2022-09-01T10:07:25;1.73;;;1.00;;
19189;SDS011;9727;50.200;19.038;2022-09-01T10:09:52;0.80;;;0.70;;
19189;SDS011;9727;50.200;19.038;2022-09-01T10:12:20;1.17;;;0.75;;
19189;SDS011;9727;50.200;19.038;2022-09-01T10:14:47;4.05;;;0.90;;
19189;SDS011;9727;50.200;19.038;2022-09-01T10:17:18;1.23;;;0.73;;
19189;SDS011;9727;50.200;19.038;2022-09-01T10:19:48;1.35;;;0.75;;
19189;SDS011;9727;50.200;19.038;2022-09-01T10:22:16;1.83;;;0.90;;
19189;SDS011;9727;50.200;19.038;2022-09-01T10:24:43;1.27;;;0.60;;
19189;SDS011;9727;50.200;19.038;2022-09-01T10:27:10;0.82;;;0.77;;
19189;SDS011;9727;50.200;19.038;2022-09-01T10:29:41;1.98;;;0.90;;
19189;SDS011;9727;50.200;19.038;2022-09-01T10:32:09;0.95;;;0.80;;
19189;SDS011;9727;50.200;19.038;2022-09-01T10:34:41;2.80;;;0.80;;
19189;SDS011;9727;50.200;19.038;2022-09-01T10:37:10;1.38;;;0.85;;
19189;SDS011;9727;50.200;19.038;2022-09-01T10:42:20;1.25;;;0.80;;
19189;SDS011;9727;50.200;19.038;2022-09-01T10:44:54;1.17;;;0.70;;
19189;SDS011;9727;50.200;19.038;2022-09-01T10:47:23;1.85;;;0.63;;
19189;SDS011;9727;50.200;19.038;2022-09-01T10:55:19;1.48;;;0.80;;
19189;SDS011;9727;50.200;19.038;2022-09-01T10:57:49;4.90;;;1.15;;
19189;SDS011;9727;50.200;19.038;2022-09-01T11:06:03;1.70;;;0.80;;
19189;SDS011;9727;50.200;19.038;2022-09-01T11:08:41;2.55;;;0.85;;
19189;SDS011;9727;50.200;19.038;2022-09-01T11:11:11;1.30;;;0.75;;
19189;SDS011;9727;50.200;19.038;2022-09-01T11:13:42;0.90;;;0.70;;
19189;SDS011;9727;50.200;19.038;2022-09-01T11:16:29;2.33;;;0.77;;
19189;SDS011;9727;50.200;19.038;2022-09-01T11:19:15;1.17;;;0.65;;
19189;SDS011;9727;50.200;19.038;2022-09-01T11:21:45;2.15;;;0.60;;
19189;SDS011;9727;50.200;19.038;2022-09-01T11:27:01;2.45;;;0.65;;
19189;SDS011;9727;50.200;19.038;2022-09-01T11:32:13;2.20;;;0.75;;
19189;SDS011;9727;50.200;19.038;2022-09-01T11:34:42;1.95;;;0.75;;
19189;SDS011;9727;50.200;19.038;2022-09-01T11:37:16;5.38;;;0.90;;
19189;SDS011;9727;50.200;19.038;2022-09-01T11:39:45;1.83;;;1.10;;
19189;SDS011;9727;50.200;19.038;2022-09-01T11:42:18;3.70;;;1.00;;
19189;SDS011;9727;50.200;19.038;2022-09-01T11:44:47;2.63;;;0.70;;
19189;SDS011;9727;50.200;19.038;2022-09-01T11:47:16;2.45;;;1.00;;
19189;SDS011;9727;50.200;19.038;2022-09-01T11:49:47;2.33;;;1.00;;
19189;SDS011;9727;50.200;19.038;2022-09-01T11:52:18;4.13;;;1.48;;
19189;SDS011;9727;50.200;19.038;2022-09-01T11:54:45;3.65;;;1.42;;
19189;SDS011;9727;50.200;19.038;2022-09-01T11:57:26;4.25;;;1.25;;
19189;SDS011;9727;50.200;19.038;2022-09-01T11:59:56;1.40;;;1.00;;
19189;SDS011;9727;50.200;19.038;2022-09-01T12:02:24;6.72;;;1.00;;
19189;SDS011;9727;50.200;19.038;2022-09-01T12:04:51;2.10;;;0.82;;
19189;SDS011;9727;50.200;19.038;2022-09-01T12:07:24;3.80;;;0.65;;
19189;SDS011;9727;50.200;19.038;2022-09-01T12:09:51;2.25;;;0.63;;
19189;SDS011;9727;50.200;19.038;2022-09-01T12:12:27;1.13;;;0.73;;
19189;SDS011;9727;50.200;19.038;2022-09-01T12:14:54;1.20;;;0.90;;
19189;SDS011;9727;50.200;19.038;2022-09-01T12:17:22;2.15;;;0.95;;
19189;SDS011;9727;50.200;19.038;2022-09-01T12:19:48;3.65;;;0.82;;
19189;SDS011;9727;50.200;19.038;2022-09-01T12:22:17;4.07;;;1.10;;
19189;SDS011;9727;50.200;19.038;2022-09-01T12:24:45;1.95;;;0.75;;
19189;SDS011;9727;50.200;19.038;2022-09-01T12:27:19;2.25;;;0.80;;
19189;SDS011;9727;50.200;19.038;2022-09-01T12:29:49;2.55;;;0.70;;
19189;SDS011;9727;50.200;19.038;2022-09-01T12:32:29;1.73;;;0.60;;
19189;SDS011;9727;50.200;19.038;2022-09-01T12:34:58;0.70;;;0.70;;
19189;SDS011;9727;50.200;19.038;2022-09-01T12:37:25;1.58;;;0.68;;
19189;SDS011;9727;50.200;19.038;2022-09-01T12:39:53;0.90;;;0.70;;
19189;SDS011;9727;50.200;19.038;2022-09-01T12:42:23;1.83;;;0.60;;
19189;SDS011;9727;50.200;19.038;2022-09-01T12:44:53;2.20;;;0.77;;
19189;SDS011;9727;50.200;19.038;2022-09-01T12:52:54;4.45;;;0.80;;
19189;SDS011;9727;50.200;19.038;2022-09-01T12:55:23;1.50;;;0.77;;
19189;SDS011;9727;50.200;19.038;2022-09-01T12:57:51;1.75;;;0.60;;
19189;SDS011;9727;50.200;19.038;2022-09-01T13:00:20;1.48;;;0.73;;
19189;SDS011;9727;50.200;19.038;2022-09-01T13:02:48;1.95;;;0.60;;
19189;SDS011;9727;50.200;19.038;2022-09-01T13:05:18;3.13;;;1.10;;
19189;SDS011;9727;50.200;19.038;2022-09-01T13:07:45;1.90;;;1.13;;
19189;SDS011;9727;50.200;19.038;2022-09-01T13:10:18;2.70;;;0.93;;
19189;SDS011;9727;50.200;19.038;2022-09-01T13:12:46;1.90;;;0.70;;
19189;SDS011;9727;50.200;19.038;2022-09-01T13:15:13;3.05;;;0.85;;
19189;SDS011;9727;50.200;19.038;2022-09-01T13:17:43;1.15;;;0.80;;
19189;SDS011;9727;50.200;19.038;2022-09-01T13:20:10;3.33;;;0.70;;
19189;SDS011;9727;50.200;19.038;2022-09-01T13:22:44;3.42;;;0.63;;
19189;SDS011;9727;50.200;19.038;2022-09-01T13:25:18;2.58;;;0.95;;
19189;SDS011;9727;50.200;19.038;2022-09-01T13:27:48;4.32;;;0.70;;
19189;SDS011;9727;50.200;19.038;2022-09-01T13:30:21;4.03;;;0.90;;
19189;SDS011;9727;50.200;19.038;2022-09-01T13:32:54;1.98;;;0.98;;
19189;SDS011;9727;50.200;19.038;2022-09-01T13:35:21;1.35;;;0.70;;
19189;SDS011;9727;50.200;19.038;2022-09-01T13:37:48;0.80;;;0.60;;
19189;SDS011;9727;50.200;19.038;2022-09-01T13:40:16;0.98;;;0.60;;
19189;SDS011;9727;50.200;19.038;2022-09-01T13:42:43;1.33;;;0.70;;
19189;SDS011;9727;50.200;19.038;2022-09-01T13:45:10;2.67;;;0.60;;
19189;SDS011;9727;50.200;19.038;2022-09-01T13:47:45;1.52;;;0.50;;
19189;SDS011;9727;50.200;19.038;2022-09-01T13:50:14;3.45;;;0.70;;
19189;SDS011;9727;50.200;19.038;2022-09-01T13:52:44;1.00;;;0.70;;
19189;SDS011;9727;50.200;19.038;2022-09-01T13:55:13;1.02;;;0.57;;
19189;SDS011;9727;50.200;19.038;2022-09-01T13:57:41;0.60;;;0.60;;
19189;SDS011;9727;50.200;19.038;2022-09-01T14:00:09;4.00;;;0.90;;
19189;SDS011;9727;50.200;19.038;2022-09-01T14:02:38;3.05;;;0.90;;
19189;SDS011;9727;50.200;19.038;2022-09-01T14:05:05;1.00;;;0.60;;
19189;SDS011;9727;50.200;19.038;2022-09-01T14:07:33;1.58;;;0.70;;
19189;SDS011;9727;50.200;19.038;2022-09-01T14:10:00;1.33;;;0.70;;
19189;SDS011;9727;50.200;19.038;2022-09-01T14:12:26;1.08;;;0.60;;
19189;SDS011;9727;50.200;19.038;2022-09-01T14:14:54;1.17;;;0.50;;
19189;SDS011;9727;50.200;19.038;2022-09-01T14:17:22;1.88;;;0.60;;
19189;SDS011;9727;50.200;19.038;2022-09-01T14:19:48;0.80;;;0.60;;
19189;SDS011;9727;50.200;19.038;2022-09-01T14:22:18;2.75;;;0.70;;
19189;SDS011;9727;50.200;19.038;2022-09-01T14:24:46;5.60;;;0.80;;
19189;SDS011;9727;50.200;19.038;2022-09-01T14:27:13;1.33;;;0.60;;
19189;SDS011;9727;50.200;19.038;2022-09-01T14:29:40;2.13;;;0.68;;
19189;SDS011;9727;50.200;19.038;2022-09-01T14:32:07;4.78;;;0.82;;
19189;SDS011;9727;50.200;19.038;2022-09-01T14:34:34;0.95;;;0.45;;
19189;SDS011;9727;50.200;19.038;2022-09-01T14:37:01;0.60;;;0.60;;
19189;SDS011;9727;50.200;19.038;2022-09-01T14:39:28;4.18;;;0.85;;
19189;SDS011;9727;50.200;19.038;2022-09-01T14:41:56;2.92;;;0.73;;
19189;SDS011;9727;50.200;19.038;2022-09-01T14:44:23;5.43;;;0.90;;
19189;SDS011;9727;50.200;19.038;2022-09-01T14:46:49;2.78;;;0.80;;
19189;SDS011;9727;50.200;19.038;2022-09-01T14:49:18;1.70;;;0.80;;
19189;SDS011;9727;50.200;19.038;2022-09-01T14:51:45;1.00;;;0.65;;
19189;SDS011;9727;50.200;19.038;2022-09-01T14:54:15;0.85;;;0.60;;
19189;SDS011;9727;50.200;19.038;2022-09-01T14:56:42;4.35;;;0.63;;
19189;SDS011;9727;50.200;19.038;2022-09-01T14:59:10;2.88;;;0.68;;
19189;SDS011;9727;50.200;19.038;2022-09-01T15:01:44;1.77;;;0.70;;
19189;SDS011;9727;50.200;19.038;2022-09-01T15:04:13;3.53;;;0.70;;
19189;SDS011;9727;50.200;19.038;2022-09-01T15:06:42;3.42;;;0.60;;
19189;SDS011;9727;50.200;19.038;2022-09-01T15:09:08;1.55;;;0.85;;
19189;SDS011;9727;50.200;19.038;2022-09-01T15:11:35;4.68;;;1.80;;
19189;SDS011;9727;50.200;19.038;2022-09-01T15:14:02;3.67;;;1.10;;
19189;SDS011;9727;50.200;19.038;2022-09-01T15:16:30;4.53;;;1.40;;
19189;SDS011;9727;50.200;19.038;2022-09-01T15:18:59;2.92;;;1.42;;
19189;SDS011;9727;50.200;19.038;2022-09-01T15:21:27;2.00;;;0.80;;
19189;SDS011;9727;50.200;19.038;2022-09-01T15:23:58;1.40;;;0.80;;
19189;SDS011;9727;50.200;19.038;2022-09-01T15:26:24;4.65;;;0.90;;
19189;SDS011;9727;50.200;19.038;2022-09-01T15:28:51;1.17;;;1.00;;